Terminal Aerodrome Forecast
Issued by NWS Burlington, VT

Home | Current Version | Previous Version | Text Only | Print | Product List | Glossary On
Versions: 1 2 3 4 5 6 7 8 9 10 11 12 13 14 15 16 17 18 19 20 21 22 23 24 25
391
FTUS41 KBTV 181412 AAB
TAFBTV
TAF AMD
KBTV 181412Z 1814/1912 19005KT P6SM SCT028 OVC035
      TEMPO 1814/1817 5SM -SHSN BR BKN028
     FM181700 22007KT P6SM OVC035
     FM182000 26006KT P6SM OVC035
     FM191000 18004KT P6SM BKN040=

USA.gov is the U.S. government's official web portal to all federal, state and local government web resources and services.